Time;durP1;ratioP1;P1;durP2;ratioP2;P2;SDS_P1;SDS_P2;PMS_P1;PMS_P2;Temp;Humidity;BMP_temperature;BMP_pressure;BME280_temperature;BME280_humidity;BME280_pressure;Samples;Min_cycle;Max_cycle;Signal;HPM_P1;HPM_P2
2022/04/24 00:00:56;;;;;;;36.70;25.20;;;;;;;12.17;100.00;93370.56;5093397;28;20198;-58
2022/04/24 00:03:22;;;;;;;34.90;23.60;;;;;;;12.19;100.00;93359.16;5093577;28;20191;-58
2022/04/24 00:05:47;;;;;;;35.97;24.97;;;;;;;12.09;100.00;93349.50;5091871;28;20180;-58
2022/04/24 00:08:13;;;;;;;35.73;24.40;;;;;;;12.00;100.00;93344.06;5092549;28;20188;-57
2022/04/24 00:10:38;;;;;;;35.67;24.67;;;;;;;12.05;100.00;93340.69;5093774;28;20208;-58
2022/04/24 00:13:04;;;;;;;32.23;23.80;;;;;;;12.04;100.00;93347.38;5092916;28;20212;-58
2022/04/24 00:15:29;;;;;;;38.17;25.53;;;;;;;11.87;100.00;93340.78;5092783;28;20187;-58
2022/04/24 00:17:54;;;;;;;37.80;25.33;;;;;;;11.99;100.00;93326.13;5092785;28;20192;-57
2022/04/24 00:20:20;;;;;;;35.60;24.70;;;;;;;11.90;100.00;93331.63;5093790;28;20183;-58
2022/04/24 00:22:45;;;;;;;34.97;24.53;;;;;;;11.95;100.00;93331.00;5092677;28;20204;-59
2022/04/24 00:25:11;;;;;;;37.97;25.50;;;;;;;11.96;100.00;93343.47;5092642;28;20239;-58
2022/04/24 00:27:36;;;;;;;36.07;24.60;;;;;;;11.91;100.00;93327.69;5092478;28;20188;-59
2022/04/24 00:30:03;;;;;;;36.03;24.50;;;;;;;11.85;100.00;93318.59;5092586;28;20172;-59
2022/04/24 00:32:28;;;;;;;36.73;25.67;;;;;;;11.80;100.00;93330.16;5092293;28;20244;-60
2022/04/24 00:34:53;;;;;;;34.97;23.90;;;;;;;11.83;100.00;93323.75;5093175;28;20192;-59
2022/04/24 00:37:19;;;;;;;38.13;25.03;;;;;;;11.67;100.00;93311.22;5092701;28;20204;-58
2022/04/24 00:39:44;;;;;;;35.37;24.93;;;;;;;11.72;100.00;93307.84;5092378;28;20275;-59
2022/04/24 00:42:09;;;;;;;36.87;24.90;;;;;;;11.73;100.00;93314.09;5092518;28;20218;-58
2022/04/24 00:44:35;;;;;;;37.43;25.07;;;;;;;11.98;100.00;93313.69;5092389;28;20227;-58
2022/04/24 00:47:06;;;;;;;35.07;24.57;;;;;;;11.89;100.00;93302.75;5092795;28;20606;-58
2022/04/24 00:49:31;;;;;;;36.10;25.17;;;;;;;12.09;100.00;93292.78;5092800;28;20229;-59
2022/04/24 00:51:57;;;;;;;35.17;23.50;;;;;;;11.86;100.00;93303.69;5092439;28;20193;-58
2022/04/24 00:54:23;;;;;;;38.20;26.23;;;;;;;11.73;100.00;93301.16;5092184;28;20181;-58
2022/04/24 00:56:48;;;;;;;37.10;24.70;;;;;;;11.70;100.00;93293.13;5092372;28;20196;-58
2022/04/24 00:59:15;;;;;;;38.57;25.40;;;;;;;11.88;100.00;93290.31;5092392;28;20196;-58
2022/04/24 01:01:41;;;;;;;37.23;25.77;;;;;;;11.97;100.00;93284.78;5092570;28;20212;-58
2022/04/24 01:04:09;;;;;;;38.67;25.80;;;;;;;11.65;100.00;93280.09;5091933;28;20188;-57
2022/04/24 01:06:37;;;;;;;36.97;24.43;;;;;;;11.80;100.00;93270.00;5092150;28;20192;-58
2022/04/24 01:09:18;;;;;;;39.10;26.37;;;;;;;11.74;100.00;93272.59;5092343;28;20202;-58
2022/04/24 01:11:46;;;;;;;38.47;26.17;;;;;;;11.90;100.00;93263.25;5092484;28;20192;-58
2022/04/24 01:14:12;;;;;;;38.33;25.90;;;;;;;12.04;100.00;93262.56;5092183;28;20191;-58
2022/04/24 01:16:38;;;;;;;37.50;25.60;;;;;;;11.68;100.00;93262.75;5092136;28;20184;-59
2022/04/24 01:19:05;;;;;;;37.73;25.73;;;;;;;11.63;100.00;93261.41;5094893;28;20192;-59
2022/04/24 01:21:34;;;;;;;42.07;26.80;;;;;;;11.69;100.00;93254.06;5095672;28;20257;-59
2022/04/24 01:23:59;;;;;;;40.73;27.10;;;;;;;11.83;100.00;93263.59;5095567;28;20180;-59
2022/04/24 01:26:25;;;;;;;40.50;27.30;;;;;;;11.89;100.00;93256.28;5095483;28;20235;-59
2022/04/24 01:28:50;;;;;;;38.77;27.03;;;;;;;11.80;100.00;93248.88;5095031;28;20190;-59
2022/04/24 01:31:16;;;;;;;41.67;27.07;;;;;;;11.68;100.00;93251.81;5095725;28;20220;-59
2022/04/24 01:33:42;;;;;;;38.27;26.73;;;;;;;11.87;100.00;93247.78;5095574;28;20187;-59
2022/04/24 01:36:08;;;;;;;39.57;26.30;;;;;;;11.68;100.00;93247.09;5095334;28;20226;-58
2022/04/24 01:38:33;;;;;;;40.80;27.20;;;;;;;11.68;100.00;93244.38;5094878;28;20203;-59
2022/04/24 01:40:59;;;;;;;39.67;26.73;;;;;;;12.06;100.00;93251.94;5094976;28;20191;-58
2022/04/24 01:43:24;;;;;;;40.97;26.57;;;;;;;12.08;100.00;93252.97;5095061;28;20183;-58
2022/04/24 01:45:49;;;;;;;42.70;27.27;;;;;;;12.07;100.00;93247.97;5095048;28;20218;-58
2022/04/24 01:48:15;;;;;;;37.87;26.37;;;;;;;12.06;100.00;93243.72;5094734;28;20184;-58
2022/04/24 01:50:40;;;;;;;43.37;26.97;;;;;;;12.06;100.00;93238.25;5094927;28;20181;-59
2022/04/24 01:53:05;;;;;;;40.33;27.20;;;;;;;11.85;100.00;93244.75;5094659;28;20189;-58
2022/04/24 01:55:31;;;;;;;40.57;26.80;;;;;;;12.16;100.00;93247.91;5094583;28;20195;-59
2022/04/24 01:57:56;;;;;;;38.27;26.20;;;;;;;12.13;100.00;93243.38;5094816;28;20214;-58
2022/04/24 02:00:21;;;;;;;37.30;26.03;;;;;;;12.15;100.00;93241.69;5094849;28;20271;-58
2022/04/24 02:02:47;;;;;;;39.77;26.83;;;;;;;12.01;100.00;93236.13;5094572;28;20218;-58
2022/04/24 02:05:14;;;;;;;38.70;26.57;;;;;;;11.99;100.00;93227.66;5094846;28;20218;-58
2022/04/24 02:07:39;;;;;;;39.37;25.67;;;;;;;12.07;100.00;93226.09;5095068;28;20320;-58
2022/04/24 02:10:05;;;;;;;40.37;26.87;;;;;;;12.01;100.00;93222.47;5095207;28;20208;-58
2022/04/24 02:12:30;;;;;;;39.17;26.30;;;;;;;12.04;100.00;93238.72;5094519;28;20188;-59
2022/04/24 02:14:56;;;;;;;38.30;26.37;;;;;;;12.20;100.00;93234.81;5094977;28;20220;-58
2022/04/24 02:17:22;;;;;;;39.33;25.83;;;;;;;12.18;100.00;93235.28;5094667;28;20184;-58
2022/04/24 02:19:47;;;;;;;37.67;26.10;;;;;;;12.33;100.00;93235.34;5094461;28;20556;-58
2022/04/24 02:22:12;;;;;;;42.60;27.17;;;;;;;12.36;100.00;93237.13;5094391;28;20218;-58
2022/04/24 02:24:38;;;;;;;35.87;25.10;;;;;;;12.18;100.00;93235.28;5094400;28;20207;-58
2022/04/24 02:27:04;;;;;;;39.17;26.50;;;;;;;12.27;100.00;93253.59;5094415;28;20621;-58
2022/04/24 02:29:29;;;;;;;37.83;26.17;;;;;;;12.23;100.00;93258.50;5093767;28;20195;-58
2022/04/24 02:31:54;;;;;;;36.43;26.00;;;;;;;12.26;100.00;93246.63;5094080;28;20193;-58
2022/04/24 02:34:20;;;;;;;41.10;27.20;;;;;;;12.42;100.00;93244.22;5094480;28;20215;-58
2022/04/24 02:36:45;;;;;;;39.93;26.40;;;;;;;12.11;100.00;93245.81;5094742;28;20204;-58
2022/04/24 02:39:10;;;;;;;37.50;26.33;;;;;;;12.37;100.00;93252.34;5094424;28;20213;-59
2022/04/24 02:41:36;;;;;;;38.70;26.73;;;;;;;12.30;100.00;93258.16;5093994;28;20591;-58
2022/04/24 02:44:01;;;;;;;38.20;25.83;;;;;;;12.34;100.00;93264.22;5095216;28;20185;-58
2022/04/24 02:46:26;;;;;;;38.23;27.17;;;;;;;12.30;100.00;93267.13;5093944;28;20184;-58
2022/04/24 02:48:52;;;;;;;38.80;27.10;;;;;;;12.48;100.00;93268.97;5093974;28;20196;-59
2022/04/24 02:51:17;;;;;;;39.90;27.47;;;;;;;12.45;100.00;93275.38;5093765;28;20210;-57
2022/04/24 02:53:43;;;;;;;40.03;27.23;;;;;;;12.29;100.00;93268.38;5093968;28;20279;-58
2022/04/24 02:56:08;;;;;;;39.57;27.47;;;;;;;12.55;100.00;93268.63;5093761;28;20209;-58
2022/04/24 02:58:33;;;;;;;39.97;26.80;;;;;;;12.48;100.00;93268.97;5094349;28;20185;-58
2022/04/24 03:00:59;;;;;;;40.10;26.73;;;;;;;12.37;100.00;93263.28;5093634;28;20226;-58
2022/04/24 03:03:25;;;;;;;40.73;27.07;;;;;;;11.99;100.00;93249.53;5093526;28;20187;-58
2022/04/24 03:05:50;;;;;;;39.00;27.13;;;;;;;12.00;100.00;93245.56;5094215;28;20183;-59
2022/04/24 03:08:16;;;;;;;44.33;27.83;;;;;;;12.03;100.00;93241.91;5093748;28;20187;-58
2022/04/24 03:10:42;;;;;;;36.67;26.67;;;;;;;12.03;100.00;93244.66;5093468;28;20193;-58
2022/04/24 03:13:08;;;;;;;42.53;29.07;;;;;;;12.00;100.00;93240.88;5093635;28;20294;-58
2022/04/24 03:15:34;;;;;;;41.70;27.87;;;;;;;12.00;100.00;93235.41;5093658;28;20273;-59
2022/04/24 03:17:59;;;;;;;43.60;28.30;;;;;;;12.04;100.00;93246.91;5093759;28;20176;-58
2022/04/24 03:20:25;;;;;;;42.57;28.60;;;;;;;12.07;100.00;93250.69;5093608;28;20229;-58
2022/04/24 03:22:51;;;;;;;44.30;29.33;;;;;;;11.96;100.00;93262.16;5093448;28;20231;-59
2022/04/24 03:25:16;;;;;;;44.80;29.60;;;;;;;11.84;100.00;93254.91;5093421;28;20212;-58
2022/04/24 03:27:42;;;;;;;43.10;29.30;;;;;;;12.10;100.00;93268.94;5093701;28;20271;-58
2022/04/24 03:30:09;;;;;;;42.00;28.33;;;;;;;12.25;100.00;93289.69;5093475;28;20185;-58
2022/04/24 03:32:35;;;;;;;38.10;25.33;;;;;;;12.34;100.00;93338.09;5093292;28;20187;-59
2022/04/24 03:35:03;;;;;;;42.83;27.37;;;;;;;12.21;100.00;93393.06;5093246;28;20282;-58
2022/04/24 03:37:29;;;;;;;40.60;26.73;;;;;;;12.30;100.00;93381.31;5093205;28;20244;-58
2022/04/24 03:39:54;;;;;;;42.10;28.40;;;;;;;12.31;100.00;93375.38;5092853;28;20183;-58
2022/04/24 03:42:20;;;;;;;39.77;27.07;;;;;;;12.28;100.00;93370.09;5093372;28;20209;-58
2022/04/24 03:44:45;;;;;;;42.93;28.30;;;;;;;12.35;100.00;93364.28;5093092;28;20189;-58
2022/04/24 03:47:11;;;;;;;41.57;27.77;;;;;;;12.24;100.00;93358.56;5093258;28;20187;-60
2022/04/24 03:49:36;;;;;;;42.70;28.00;;;;;;;12.15;100.00;93344.91;5093562;28;20273;-59
2022/04/24 03:52:02;;;;;;;42.23;27.77;;;;;;;12.31;100.00;93345.28;5094084;28;20189;-58
2022/04/24 03:54:27;;;;;;;41.20;27.77;;;;;;;12.31;100.00;93347.28;5094083;28;20181;-58
2022/04/24 03:56:53;;;;;;;39.13;27.40;;;;;;;12.28;100.00;93342.72;5093568;28;20188;-58
2022/04/24 03:59:18;;;;;;;39.73;26.70;;;;;;;12.40;100.00;93333.53;5093042;28;20279;-58
2022/04/24 04:01:43;;;;;;;40.47;27.73;;;;;;;12.38;100.00;93336.72;5092721;28;20212;-59
2022/04/24 04:04:09;;;;;;;42.63;27.87;;;;;;;12.39;100.00;93337.50;5092823;28;20184;-59
2022/04/24 04:06:34;;;;;;;43.63;28.37;;;;;;;12.33;100.00;93342.06;5092951;28;20283;-59
2022/04/24 04:08:59;;;;;;;41.20;28.00;;;;;;;12.36;100.00;93343.88;5092878;28;20187;-58
2022/04/24 04:11:26;;;;;;;40.47;28.43;;;;;;;12.37;100.00;93356.34;5092751;28;20283;-59
2022/04/24 04:13:51;;;;;;;41.20;28.07;;;;;;;12.45;100.00;93357.50;5092749;28;20265;-59
2022/04/24 04:16:17;;;;;;;39.57;26.93;;;;;;;12.37;100.00;93359.09;5092692;28;20533;-59
2022/04/24 04:18:42;;;;;;;39.60;27.77;;;;;;;12.26;100.00;93367.81;5092543;28;20240;-59
2022/04/24 04:21:08;;;;;;;40.83;27.57;;;;;;;12.45;100.00;93371.97;5093082;28;20184;-58
2022/04/24 04:23:33;;;;;;;40.00;27.57;;;;;;;12.54;100.00;93376.66;5092785;28;20176;-59
2022/04/24 04:25:58;;;;;;;43.73;28.40;;;;;;;12.59;100.00;93379.50;5092928;28;20219;-59
2022/04/24 04:28:24;;;;;;;42.50;28.43;;;;;;;12.61;100.00;93387.25;5092890;28;20187;-59
2022/04/24 04:30:49;;;;;;;42.70;28.53;;;;;;;12.56;100.00;93393.34;5092693;28;20189;-58
2022/04/24 04:33:14;;;;;;;38.33;26.93;;;;;;;12.27;100.00;93396.69;5092579;28;20188;-59
2022/04/24 04:35:40;;;;;;;40.77;27.90;;;;;;;12.20;100.00;93393.53;5092630;28;20207;-58
2022/04/24 04:38:05;;;;;;;39.47;26.53;;;;;;;12.21;100.00;93397.78;5093036;28;20184;-58
2022/04/24 04:40:31;;;;;;;39.63;26.30;;;;;;;12.32;100.00;93398.03;5092547;28;20181;-58
2022/04/24 04:42:56;;;;;;;37.73;25.53;;;;;;;12.42;100.00;93410.47;5092871;28;20230;-58
2022/04/24 04:45:24;;;;;;;38.10;25.50;;;;;;;12.43;100.00;93414.72;5092884;28;20219;-58
2022/04/24 04:47:50;;;;;;;35.93;25.13;;;;;;;12.34;100.00;93423.72;5092306;28;20192;-58
2022/04/24 04:50:16;;;;;;;35.97;24.63;;;;;;;12.48;100.00;93422.28;5092319;28;20286;-59
2022/04/24 04:52:41;;;;;;;34.03;23.63;;;;;;;12.60;100.00;93429.53;5093411;28;20194;-59
2022/04/24 04:55:07;;;;;;;34.33;24.37;;;;;;;12.58;100.00;93430.03;5095935;28;20193;-58
2022/04/24 04:57:32;;;;;;;31.90;22.90;;;;;;;12.57;100.00;93435.97;5095912;28;20525;-59
2022/04/24 04:59:58;;;;;;;33.57;23.00;;;;;;;12.67;100.00;93438.19;5095645;28;20198;-59
2022/04/24 05:02:23;;;;;;;33.53;22.73;;;;;;;12.71;100.00;93446.22;5095527;28;20208;-58
2022/04/24 05:04:48;;;;;;;32.40;22.40;;;;;;;12.71;100.00;93457.16;5095782;28;20197;-58
2022/04/24 05:07:14;;;;;;;34.20;23.00;;;;;;;12.68;100.00;93458.84;5095721;28;20188;-59
2022/04/24 05:09:39;;;;;;;33.50;22.60;;;;;;;12.74;100.00;93467.19;5096046;28;20307;-59
2022/04/24 05:12:07;;;;;;;34.37;23.13;;;;;;;12.83;100.00;93469.91;5096042;28;20559;-58
2022/04/24 05:14:32;;;;;;;32.60;23.43;;;;;;;13.07;100.00;93473.44;5096606;28;20193;-59
2022/04/24 05:16:58;;;;;;;33.97;22.53;;;;;;;13.14;100.00;93473.88;5095401;28;20176;-59
2022/04/24 05:19:25;;;;;;;31.03;22.03;;;;;;;13.23;100.00;93478.53;5095477;28;20227;-58
2022/04/24 05:21:51;;;;;;;32.97;22.37;;;;;;;13.33;100.00;93485.47;5095218;28;20200;-58
2022/04/24 05:24:17;;;;;;;36.43;23.83;;;;;;;13.41;100.00;93503.09;5095439;28;20192;-58
2022/04/24 05:26:42;;;;;;;31.03;22.07;;;;;;;13.29;100.00;93506.81;5095187;28;20271;-59
2022/04/24 05:29:07;;;;;;;32.73;21.73;;;;;;;13.31;100.00;93512.59;5095196;28;20553;-58
2022/04/24 05:31:33;;;;;;;31.17;21.83;;;;;;;13.45;100.00;93520.13;5095093;28;20271;-59
2022/04/24 05:33:58;;;;;;;28.93;21.67;;;;;;;13.64;100.00;93532.50;5095911;28;20183;-58
2022/04/24 05:36:24;;;;;;;29.20;20.30;;;;;;;13.81;100.00;93530.84;5095178;28;20199;-59
2022/04/24 05:38:49;;;;;;;27.53;19.63;;;;;;;13.98;100.00;93523.69;5095235;28;20184;-59
2022/04/24 05:41:15;;;;;;;29.17;20.83;;;;;;;14.20;100.00;93510.38;5095256;28;20205;-59
2022/04/24 05:43:40;;;;;;;30.07;21.00;;;;;;;14.28;100.00;93519.78;5095202;28;20182;-59
2022/04/24 05:46:05;;;;;;;28.27;21.13;;;;;;;14.41;100.00;93517.53;5094987;28;20189;-59
2022/04/24 05:48:31;;;;;;;29.43;21.00;;;;;;;14.53;100.00;93524.72;5095047;28;20174;-59
2022/04/24 05:50:57;;;;;;;30.60;22.83;;;;;;;14.68;100.00;93519.97;5094781;28;20414;-60
2022/04/24 05:53:22;;;;;;;26.73;19.53;;;;;;;14.85;100.00;93529.25;5095320;28;20202;-59
2022/04/24 05:55:47;;;;;;;25.17;18.67;;;;;;;14.83;100.00;93537.19;5095129;28;20271;-58
2022/04/24 05:58:13;;;;;;;25.57;18.57;;;;;;;15.02;100.00;93538.50;5095207;28;20184;-60
2022/04/24 06:00:38;;;;;;;26.40;18.60;;;;;;;15.16;100.00;93537.72;5094342;28;20194;-59
2022/04/24 06:03:04;;;;;;;26.03;18.10;;;;;;;15.03;100.00;93540.03;5094501;28;20233;-59
2022/04/24 06:05:29;;;;;;;58.87;40.50;;;;;;;15.24;100.00;93538.84;5093390;28;20257;-58
2022/04/24 06:07:55;;;;;;;22.87;18.13;;;;;;;15.32;100.00;93542.72;5094832;28;20268;-60
2022/04/24 06:10:22;;;;;;;25.67;17.27;;;;;;;15.50;100.00;93539.75;5094520;28;20195;-58
2022/04/24 06:12:52;;;;;;;22.80;17.40;;;;;;;15.49;100.00;93543.75;5094747;28;20246;-59
2022/04/24 06:15:24;;;;;;;23.93;17.50;;;;;;;15.58;100.00;93540.84;5094613;28;20286;-59
2022/04/24 06:17:51;;;;;;;22.67;16.90;;;;;;;15.91;100.00;93543.25;5094473;28;20198;-58
2022/04/24 06:20:17;;;;;;;23.03;17.33;;;;;;;15.95;100.00;93541.06;5094792;28;20194;-59
2022/04/24 06:22:50;;;;;;;21.47;16.67;;;;;;;16.34;100.00;93539.50;5094002;28;20207;-58
2022/04/24 06:25:18;;;;;;;21.37;15.57;;;;;;;16.65;100.00;93538.84;5094754;28;20261;-59
2022/04/24 06:27:48;;;;;;;20.20;15.27;;;;;;;16.89;100.00;93537.28;5094213;28;20190;-58
2022/04/24 06:30:14;;;;;;;21.03;15.70;;;;;;;18.68;100.00;93548.31;5094373;28;20181;-58
2022/04/24 06:32:41;;;;;;;18.80;14.27;;;;;;;19.11;94.03;93543.34;5094197;28;20192;-59
2022/04/24 06:35:09;;;;;;;14.93;12.60;;;;;;;19.47;87.46;93534.03;5094315;28;20200;-59
2022/04/24 06:37:37;;;;;;;15.97;13.17;;;;;;;20.53;82.29;93549.84;5094231;28;20199;-59
2022/04/24 06:40:03;;;;;;;14.23;12.67;;;;;;;21.17;78.77;93549.22;5094086;28;20192;-59
2022/04/24 06:42:28;;;;;;;13.30;11.87;;;;;;;21.73;72.22;93539.16;5094466;28;20668;-59
2022/04/24 06:44:56;;;;;;;12.80;11.43;;;;;;;21.62;71.65;93541.25;5094074;28;20250;-58
2022/04/24 06:47:21;;;;;;;12.03;10.23;;;;;;;22.48;68.54;93533.78;5095211;28;20233;-58
2022/04/24 06:49:47;;;;;;;11.57;9.63;;;;;;;25.20;56.13;93546.69;5095052;28;20591;-59
2022/04/24 06:52:12;;;;;;;10.60;9.50;;;;;;;26.60;49.88;93544.19;5094056;28;20192;-59
2022/04/24 06:54:38;;;;;;;8.83;8.00;;;;;;;27.90;43.19;93541.97;5094499;28;20216;-60
2022/04/24 06:57:04;;;;;;;7.80;7.00;;;;;;;29.22;38.82;93556.91;5093791;28;20329;-60
2022/04/24 06:59:29;;;;;;;5.90;5.40;;;;;;;29.79;35.91;93545.75;5093650;28;20641;-59
2022/04/24 07:01:55;;;;;;;5.33;3.87;;;;;;;29.90;34.91;93562.91;5093607;28;20204;-61
2022/04/24 07:04:20;;;;;;;4.27;3.47;;;;;;;29.46;34.47;93558.31;5094705;28;20183;-60
2022/04/24 07:06:45;;;;;;;5.60;3.27;;;;;;;30.46;32.83;93564.19;5093689;28;20198;-60
2022/04/24 07:09:11;;;;;;;2.90;2.57;;;;;;;29.70;33.18;93564.00;5094161;28;20184;-59
2022/04/24 07:11:36;;;;;;;16.13;12.00;;;;;;;30.86;31.45;93567.56;5093979;28;20235;-60
2022/04/24 07:14:02;;;;;;;4.40;2.85;;;;;;;30.60;31.06;93559.72;5093534;28;20176;-59
2022/04/24 07:16:27;;;;;;;4.45;3.25;;;;;;;30.98;31.24;93562.91;5093227;28;20225;-59
2022/04/24 07:18:53;;;;;;;3.95;2.67;;;;;;;31.40;29.69;93557.91;5093804;28;20180;-59
2022/04/24 07:21:18;;;;;;;2.78;2.33;;;;;;;31.06;29.36;93575.59;5093877;28;20195;-59
2022/04/24 07:23:43;;;;;;;2.25;1.90;;;;;;;30.30;30.12;93574.84;5093392;28;20177;-59
2022/04/24 07:26:09;;;;;;;2.78;2.50;;;;;;;30.74;29.90;93561.66;5093153;28;20212;-59
2022/04/24 07:28:35;;;;;;;2.70;2.50;;;;;;;30.32;29.79;93577.06;5093744;28;20199;-59
2022/04/24 07:31:00;;;;;;;2.00;1.75;;;;;;;31.00;29.35;93571.53;5094094;28;20208;-59
2022/04/24 07:33:25;;;;;;;3.72;2.92;;;;;;;32.82;27.00;93566.31;5093415;28;20188;-59
2022/04/24 07:35:51;;;;;;;4.13;2.42;;;;;;;33.19;26.71;93573.34;5093302;28;20181;-59
2022/04/24 07:38:16;;;;;;;2.28;1.50;;;;;;;33.11;25.83;93584.03;5093264;28;20184;-60
2022/04/24 07:40:42;;;;;;;2.25;1.92;;;;;;;32.86;27.09;93583.59;5093275;28;20230;-60
2022/04/24 07:43:09;;;;;;;3.33;3.03;;;;;;;33.38;26.43;93593.16;5093115;28;20231;-60
2022/04/24 07:45:39;;;;;;;2.67;2.47;;;;;;;33.49;25.66;93592.56;5093214;28;20184;-59
2022/04/24 07:48:07;;;;;;;2.85;1.60;;;;;;;34.46;25.05;93583.25;5093061;28;20207;-59
2022/04/24 07:50:46;;;;;;;2.25;1.85;;;;;;;33.96;24.87;93593.09;5093110;28;20180;-59
2022/04/24 07:53:12;;;;;;;3.40;1.73;;;;;;;31.29;28.23;93597.94;5093262;28;20227;-59
2022/04/24 07:55:42;;;;;;;8.60;7.30;;;;;;;29.44;29.54;93608.75;5093679;28;20185;-60
2022/04/24 07:58:08;;;;;;;2.53;2.33;;;;;;;29.46;30.05;93611.78;5093458;28;20184;-59
2022/04/24 08:00:34;;;;;;;1.67;1.57;;;;;;;27.76;32.78;93616.41;5093249;28;20196;-60
2022/04/24 08:03:01;;;;;;;1.60;1.50;;;;;;;25.49;36.15;93629.41;5092640;28;20298;-59
2022/04/24 08:05:44;;;;;;;1.60;1.50;;;;;;;23.91;40.48;93634.75;5092829;28;20188;-58
2022/04/24 08:08:15;;;;;;;4.93;4.47;;;;;;;22.86;42.38;93641.09;5093178;28;20682;-58
2022/04/24 08:10:43;;;;;;;4.97;3.87;;;;;;;22.50;44.36;93642.53;5092779;28;20188;-59
2022/04/24 08:13:09;;;;;;;2.97;2.67;;;;;;;22.18;45.82;93648.66;5092730;28;20188;-59
2022/04/24 08:15:37;;;;;;;2.53;2.33;;;;;;;21.48;48.44;93651.50;5093091;28;20184;-59
2022/04/24 08:18:03;;;;;;;3.47;3.07;;;;;;;21.64;50.17;93650.59;5092847;28;20245;-59
2022/04/24 08:20:29;;;;;;;5.37;2.70;;;;;;;21.46;50.44;93654.03;5092695;28;20176;-59
2022/04/24 08:22:57;;;;;;;1.60;1.50;;;;;;;21.14;52.12;93658.53;5092684;28;20234;-59
2022/04/24 08:25:24;;;;;;;2.30;1.73;;;;;;;20.80;54.01;93662.69;5092310;28;20208;-59
2022/04/24 08:27:51;;;;;;;1.60;1.33;;;;;;;20.64;55.79;93669.09;5093564;28;20283;-59
2022/04/24 08:30:18;;;;;;;3.20;2.33;;;;;;;20.70;56.42;93672.59;5096103;28;20184;-59
2022/04/24 08:32:44;;;;;;;1.50;1.40;;;;;;;20.55;56.85;93676.94;5095909;28;20196;-59
2022/04/24 08:35:11;;;;;;;2.03;1.83;;;;;;;20.78;56.36;93684.69;5096350;28;20188;-59
2022/04/24 08:37:37;;;;;;;2.60;2.40;;;;;;;21.55;53.49;93678.72;5095919;28;20184;-59
2022/04/24 08:40:05;;;;;;;2.37;1.30;;;;;;;21.09;53.36;93687.06;5095969;28;20180;-58
2022/04/24 08:42:31;;;;;;;1.97;1.53;;;;;;;20.87;55.38;93689.94;5096124;28;20606;-58
2022/04/24 08:44:56;;;;;;;1.40;1.30;;;;;;;20.64;54.46;93699.59;5096034;28;20188;-59
2022/04/24 08:47:24;;;;;;;2.57;1.30;;;;;;;20.94;54.16;93708.13;5096013;28;20180;-57
2022/04/24 08:49:54;;;;;;;1.50;1.40;;;;;;;20.78;53.80;93700.56;5096296;28;20191;-57
2022/04/24 08:52:20;;;;;;;1.50;1.30;;;;;;;20.73;54.84;93699.34;5096275;28;20180;-58
2022/04/24 08:54:46;;;;;;;1.57;1.20;;;;;;;21.16;54.19;93694.88;5096440;28;20184;-58
2022/04/24 08:57:14;;;;;;;3.10;1.60;;;;;;;21.58;52.68;93688.81;5095600;28;20182;-58
2022/04/24 08:59:40;;;;;;;5.67;5.07;;;;;;;21.59;52.55;93704.22;5095878;28;20184;-59
2022/04/24 09:02:06;;;;;;;4.03;3.20;;;;;;;21.20;53.08;93702.94;5095416;28;20208;-59
2022/04/24 09:04:33;;;;;;;2.93;2.50;;;;;;;20.67;54.95;93709.69;5095687;28;20203;-59
2022/04/24 09:07:00;;;;;;;2.37;2.17;;;;;;;20.46;55.40;93714.03;5095812;28;20177;-59
2022/04/24 09:09:26;;;;;;;3.33;1.27;;;;;;;20.39;55.53;93709.00;5095623;28;20180;-58
2022/04/24 09:11:52;;;;;;;1.80;1.10;;;;;;;20.76;55.25;93711.44;5095348;28;20184;-59
2022/04/24 09:14:20;;;;;;;1.23;1.10;;;;;;;20.85;54.88;93706.34;5095689;28;20199;-59
2022/04/24 09:16:48;;;;;;;0.97;0.97;;;;;;;20.75;54.93;93702.34;5095868;28;20176;-58
2022/04/24 09:19:24;;;;;;;1.10;1.00;;;;;;;20.81;55.60;93705.88;5095438;28;20180;-58
2022/04/24 09:22:02;;;;;;;0.90;0.90;;;;;;;20.81;54.23;93710.66;5095771;28;20204;-58
2022/04/24 09:24:59;;;;;;;2.40;1.47;;;;;;;20.60;55.52;93704.66;5095649;28;20253;-58
2022/04/24 09:27:36;;;;;;;3.97;2.87;;;;;;;20.72;54.15;93717.22;5096083;28;20184;-58
2022/04/24 09:30:05;;;;;;;2.13;1.93;;;;;;;20.69;54.04;93721.03;5095548;28;20196;-59
2022/04/24 09:32:37;;;;;;;1.17;0.93;;;;;;;20.94;52.31;93719.97;5095429;28;20189;-58
2022/04/24 09:35:03;;;;;;;1.20;1.00;;;;;;;20.91;52.18;93723.72;5096323;28;20223;-58
2022/04/24 09:37:38;;;;;;;10.33;7.50;;;;;;;21.44;52.10;93714.16;5095235;28;20207;-58
2022/04/24 09:40:04;;;;;;;2.83;1.93;;;;;;;21.29;51.06;93717.28;5095367;28;20287;-58
2022/04/24 09:42:29;;;;;;;2.90;2.20;;;;;;;21.10;51.49;93727.47;5095027;28;20287;-58
2022/04/24 09:44:55;;;;;;;1.83;1.17;;;;;;;21.30;49.76;93729.88;5095143;28;20196;-58
2022/04/24 09:47:24;;;;;;;2.17;1.20;;;;;;;21.00;50.58;93731.03;5095325;28;20188;-58
2022/04/24 09:49:51;;;;;;;2.27;0.90;;;;;;;20.62;50.23;93727.13;5095034;28;20219;-59
2022/04/24 09:52:18;;;;;;;1.00;1.00;;;;;;;20.89;49.10;93729.03;5095044;28;20190;-58
2022/04/24 09:54:45;;;;;;;0.80;0.80;;;;;;;22.00;46.09;93734.78;5094741;28;20195;-59
2022/04/24 09:57:13;;;;;;;1.40;1.27;;;;;;;22.41;44.08;93730.63;5094969;28;20180;-58
2022/04/24 09:59:41;;;;;;;1.43;1.00;;;;;;;22.99;43.09;93716.38;5094494;28;20207;-59
2022/04/24 10:02:08;;;;;;;1.20;0.90;;;;;;;23.32;42.41;93721.56;5094607;28;20254;-59
2022/04/24 10:04:38;;;;;;;1.90;1.00;;;;;;;23.55;40.68;93722.78;5094973;28;20219;-59
2022/04/24 10:07:05;;;;;;;0.90;0.90;;;;;;;22.94;40.59;93720.00;5094595;28;20181;-59
2022/04/24 10:09:32;;;;;;;2.63;0.87;;;;;;;23.32;40.13;93716.75;5095421;28;20181;-58
2022/04/24 10:12:07;;;;;;;1.00;1.00;;;;;;;23.81;38.80;93708.94;5094591;28;20191;-58
2022/04/24 10:14:40;;;;;;;2.10;0.90;;;;;;;23.34;39.87;93707.88;5095068;28;20214;-58
2022/04/24 10:17:50;;;;;;;1.03;0.93;;;;;;;23.94;39.40;93709.03;5094372;28;20233;-58
2022/04/24 10:20:37;;;;;;;1.47;1.33;;;;;;;23.52;39.87;93707.13;5060963;28;20234;-58
2022/04/24 10:23:02;;;;;;;1.40;1.00;;;;;;;23.44;41.01;93712.53;5094630;28;20230;-58
2022/04/24 10:25:38;;;;;;;2.03;1.03;;;;;;;23.47;40.75;93710.72;5094556;28;20230;-58
2022/04/24 10:28:11;;;;;;;4.80;3.60;;;;;;;23.47;40.77;93710.72;5094439;28;20184;-59
2022/04/24 10:30:37;;;;;;;4.43;2.40;;;;;;;23.11;41.43;93706.59;5094390;28;20248;-58
2022/04/24 10:33:22;;;;;;;3.67;1.10;;;;;;;22.91;41.46;93704.31;5094207;28;20192;-58
2022/04/24 10:35:59;;;;;;;1.20;1.03;;;;;;;22.60;42.13;93707.69;5094910;28;20263;-59
2022/04/24 10:38:27;;;;;;;2.50;1.40;;;;;;;22.01;43.49;93712.03;5094074;28;20230;-58
2022/04/24 10:40:58;;;;;;;7.43;5.30;;;;;;;22.01;42.74;93714.81;5094161;28;20237;-59
2022/04/24 10:43:25;;;;;;;1.67;1.37;;;;;;;21.58;43.87;93713.06;5094127;28;20204;-58
2022/04/24 10:45:52;;;;;;;1.80;1.70;;;;;;;21.19;45.32;93718.84;5094551;28;20220;-59
2022/04/24 10:48:18;;;;;;;2.70;1.13;;;;;;;21.06;45.63;93715.88;5094444;28;20211;-58
2022/04/24 10:50:48;;;;;;;0.97;0.93;;;;;;;21.09;45.23;93725.94;5093516;28;20261;-58
2022/04/24 10:53:13;;;;;;;1.10;0.90;;;;;;;20.44;46.06;93719.34;5093973;28;20191;-59
2022/04/24 10:55:39;;;;;;;1.40;1.00;;;;;;;20.43;46.39;93720.59;5093969;28;20192;-60
2022/04/24 10:58:05;;;;;;;1.80;1.20;;;;;;;20.63;46.45;93723.06;5093996;28;20177;-59
2022/04/24 11:00:34;;;;;;;4.83;2.80;;;;;;;20.68;46.54;93725.06;5094520;28;20196;-58
2022/04/24 11:03:14;;;;;;;1.80;1.00;;;;;;;20.13;47.16;93730.72;5093551;28;20267;-59
2022/04/24 11:05:44;;;;;;;2.13;1.90;;;;;;;20.10;47.67;93737.25;5093909;28;20192;-58
2022/04/24 11:08:17;;;;;;;1.20;1.10;;;;;;;20.22;47.33;93736.00;5093690;28;20192;-58
2022/04/24 11:10:45;;;;;;;1.20;1.10;;;;;;;20.26;47.84;93739.28;5094070;28;20184;-59
2022/04/24 11:13:19;;;;;;;5.50;2.93;;;;;;;20.31;48.08;93740.50;5093679;28;20211;-58
2022/04/24 11:15:47;;;;;;;1.43;1.20;;;;;;;20.00;47.95;93749.84;5093714;28;20180;-59
2022/04/24 11:18:21;;;;;;;2.20;1.30;;;;;;;19.67;47.84;93744.28;5093885;28;20187;-58